sensor_id;sensor_type;location;lat;lon;timestamp;pressure;altitude;pressure_sealevel;temperature;humidity
3444;BME280;1736;52.068;6.968;2023-05-01T00:01:30;101301.44;;;9.24;76.75
3444;BME280;1736;52.068;6.968;2023-05-01T00:03:57;101302.09;;;9.28;76.14
3444;BME280;1736;52.068;6.968;2023-05-01T00:06:23;101300.50;;;9.25;76.18
3444;BME280;1736;52.068;6.968;2023-05-01T00:08:50;101295.09;;;9.39;75.53
3444;BME280;1736;52.068;6.968;2023-05-01T00:11:16;101288.50;;;9.32;76.22
3444;BME280;1736;52.068;6.968;2023-05-01T00:13:44;101288.09;;;9.26;76.43
3444;BME280;1736;52.068;6.968;2023-05-01T00:16:11;101289.66;;;9.28;75.58
3444;BME280;1736;52.068;6.968;2023-05-01T00:18:38;101283.94;;;9.22;75.87
3444;BME280;1736;52.068;6.968;2023-05-01T00:21:04;101275.38;;;9.18;76.82
3444;BME280;1736;52.068;6.968;2023-05-01T00:23:31;101268.81;;;9.11;77.84
3444;BME280;1736;52.068;6.968;2023-05-01T00:25:57;101269.44;;;9.02;77.80
3444;BME280;1736;52.068;6.968;2023-05-01T00:28:24;101266.25;;;8.97;78.87
3444;BME280;1736;52.068;6.968;2023-05-01T00:30:52;101256.06;;;8.91;79.28
3444;BME280;1736;52.068;6.968;2023-05-01T00:33:18;101265.38;;;8.84;79.34
3444;BME280;1736;52.068;6.968;2023-05-01T00:35:45;101260.72;;;8.88;78.04
3444;BME280;1736;52.068;6.968;2023-05-01T00:38:12;101248.47;;;8.87;77.90
3444;BME280;1736;52.068;6.968;2023-05-01T00:40:41;101253.28;;;8.80;78.38
3444;BME280;1736;52.068;6.968;2023-05-01T00:43:09;101244.19;;;8.72;79.47
3444;BME280;1736;52.068;6.968;2023-05-01T00:45:36;101237.09;;;8.72;80.17
3444;BME280;1736;52.068;6.968;2023-05-01T00:48:04;101241.75;;;8.69;80.67
3444;BME280;1736;52.068;6.968;2023-05-01T00:50:31;101232.50;;;8.62;80.17
3444;BME280;1736;52.068;6.968;2023-05-01T00:52:58;101233.56;;;8.59;80.39
3444;BME280;1736;52.068;6.968;2023-05-01T00:55:25;101230.72;;;8.62;80.04
3444;BME280;1736;52.068;6.968;2023-05-01T00:57:52;101229.34;;;8.57;80.79
3444;BME280;1736;52.068;6.968;2023-05-01T01:00:19;101228.50;;;8.56;80.21
3444;BME280;1736;52.068;6.968;2023-05-01T01:02:48;101227.00;;;8.52;80.48
3444;BME280;1736;52.068;6.968;2023-05-01T01:05:17;101221.06;;;8.49;81.01
3444;BME280;1736;52.068;6.968;2023-05-01T01:07:48;101211.34;;;8.49;80.44
3444;BME280;1736;52.068;6.968;2023-05-01T01:10:32;101203.59;;;8.46;80.55
3444;BME280;1736;52.068;6.968;2023-05-01T01:13:03;101206.44;;;8.43;80.61
3444;BME280;1736;52.068;6.968;2023-05-01T01:15:36;101201.38;;;8.40;81.08
3444;BME280;1736;52.068;6.968;2023-05-01T01:18:08;101202.31;;;8.39;80.62
3444;BME280;1736;52.068;6.968;2023-05-01T01:20:40;101202.41;;;8.38;80.53
3444;BME280;1736;52.068;6.968;2023-05-01T01:23:42;101193.66;;;8.37;80.90
3444;BME280;1736;52.068;6.968;2023-05-01T01:26:32;101189.50;;;8.33;80.71
3444;BME280;1736;52.068;6.968;2023-05-01T01:29:25;101191.00;;;8.37;79.21
3444;BME280;1736;52.068;6.968;2023-05-01T01:32:02;101179.56;;;8.37;78.94
3444;BME280;1736;52.068;6.968;2023-05-01T01:34:33;101187.63;;;8.48;76.66
3444;BME280;1736;52.068;6.968;2023-05-01T01:37:04;101181.28;;;8.50;77.79
3444;BME280;1736;52.068;6.968;2023-05-01T01:39:45;101172.41;;;8.51;76.31
3444;BME280;1736;52.068;6.968;2023-05-01T01:42:18;101170.31;;;8.56;75.58
3444;BME280;1736;52.068;6.968;2023-05-01T01:44:49;101170.31;;;8.56;76.09
3444;BME280;1736;52.068;6.968;2023-05-01T01:47:18;101171.13;;;8.57;76.85
3444;BME280;1736;52.068;6.968;2023-05-01T01:49:48;101166.91;;;8.54;77.91
3444;BME280;1736;52.068;6.968;2023-05-01T01:52:17;101163.41;;;8.54;77.13
3444;BME280;1736;52.068;6.968;2023-05-01T01:54:49;101163.72;;;8.49;78.35
3444;BME280;1736;52.068;6.968;2023-05-01T01:57:18;101162.97;;;8.47;78.43
3444;BME280;1736;52.068;6.968;2023-05-01T01:59:46;101161.47;;;8.43;78.41
3444;BME280;1736;52.068;6.968;2023-05-01T02:02:15;101155.28;;;8.44;78.56
3444;BME280;1736;52.068;6.968;2023-05-01T02:04:43;101150.91;;;8.43;78.16
3444;BME280;1736;52.068;6.968;2023-05-01T02:07:12;101157.16;;;8.42;78.39
3444;BME280;1736;52.068;6.968;2023-05-01T02:09:41;101145.38;;;8.34;78.57
3444;BME280;1736;52.068;6.968;2023-05-01T02:12:10;101139.56;;;8.29;78.24
3444;BME280;1736;52.068;6.968;2023-05-01T02:14:37;101131.84;;;8.26;77.98
3444;BME280;1736;52.068;6.968;2023-05-01T02:17:05;101134.38;;;8.27;77.49
3444;BME280;1736;52.068;6.968;2023-05-01T02:19:33;101128.34;;;8.25;77.03
3444;BME280;1736;52.068;6.968;2023-05-01T02:22:00;101136.81;;;8.30;76.90
3444;BME280;1736;52.068;6.968;2023-05-01T02:24:29;101127.00;;;8.32;77.86
3444;BME280;1736;52.068;6.968;2023-05-01T02:27:07;101127.63;;;8.36;76.41
3444;BME280;1736;52.068;6.968;2023-05-01T02:29:43;101123.72;;;8.41;75.70
3444;BME280;1736;52.068;6.968;2023-05-01T02:32:10;101117.69;;;8.39;75.95
3444;BME280;1736;52.068;6.968;2023-05-01T02:34:36;101118.97;;;8.46;74.49
3444;BME280;1736;52.068;6.968;2023-05-01T02:37:05;101116.31;;;8.46;76.26
3444;BME280;1736;52.068;6.968;2023-05-01T02:39:33;101116.53;;;8.43;77.71
3444;BME280;1736;52.068;6.968;2023-05-01T02:42:01;101102.38;;;8.44;77.89
3444;BME280;1736;52.068;6.968;2023-05-01T02:44:47;101098.78;;;8.45;78.55
3444;BME280;1736;52.068;6.968;2023-05-01T02:47:19;101111.03;;;8.46;78.23
3444;BME280;1736;52.068;6.968;2023-05-01T02:49:46;101093.28;;;8.48;79.08
3444;BME280;1736;52.068;6.968;2023-05-01T02:52:14;101093.47;;;8.45;78.37
3444;BME280;1736;52.068;6.968;2023-05-01T02:54:43;101090.19;;;8.42;77.18
3444;BME280;1736;52.068;6.968;2023-05-01T02:57:11;101083.19;;;8.41;78.91
3444;BME280;1736;52.068;6.968;2023-05-01T02:59:37;101085.22;;;8.37;77.53
3444;BME280;1736;52.068;6.968;2023-05-01T03:02:05;101083.09;;;8.42;76.32
3444;BME280;1736;52.068;6.968;2023-05-01T03:04:31;101081.63;;;8.38;76.00
3444;BME280;1736;52.068;6.968;2023-05-01T03:06:58;101074.44;;;8.40;74.31
3444;BME280;1736;52.068;6.968;2023-05-01T03:09:25;101067.66;;;8.36;74.21
3444;BME280;1736;52.068;6.968;2023-05-01T03:11:53;101067.44;;;8.39;73.61
3444;BME280;1736;52.068;6.968;2023-05-01T03:14:19;101067.22;;;8.42;72.56
3444;BME280;1736;52.068;6.968;2023-05-01T03:16:46;101061.94;;;8.42;72.86
3444;BME280;1736;52.068;6.968;2023-05-01T03:19:13;101061.75;;;8.45;72.38
3444;BME280;1736;52.068;6.968;2023-05-01T03:21:39;101054.53;;;8.47;72.21
3444;BME280;1736;52.068;6.968;2023-05-01T03:24:06;101053.72;;;8.47;72.54
3444;BME280;1736;52.068;6.968;2023-05-01T03:26:32;101063.63;;;8.43;73.23
3444;BME280;1736;52.068;6.968;2023-05-01T03:29:00;101058.78;;;8.37;73.23
3444;BME280;1736;52.068;6.968;2023-05-01T03:31:27;101056.44;;;8.33;73.95
3444;BME280;1736;52.068;6.968;2023-05-01T03:33:53;101056.34;;;8.34;73.64
3444;BME280;1736;52.068;6.968;2023-05-01T03:36:20;101052.97;;;8.32;74.63
3444;BME280;1736;52.068;6.968;2023-05-01T03:38:47;101049.66;;;8.29;74.76
3444;BME280;1736;52.068;6.968;2023-05-01T03:41:13;101047.88;;;8.29;76.05
3444;BME280;1736;52.068;6.968;2023-05-01T03:43:40;101044.28;;;8.30;76.35
3444;BME280;1736;52.068;6.968;2023-05-01T03:46:08;101038.03;;;8.31;76.70
3444;BME280;1736;52.068;6.968;2023-05-01T03:48:34;101038.78;;;8.33;76.89
3444;BME280;1736;52.068;6.968;2023-05-01T03:51:01;101036.97;;;8.34;74.90
3444;BME280;1736;52.068;6.968;2023-05-01T03:53:27;101032.75;;;8.31;74.23
3444;BME280;1736;52.068;6.968;2023-05-01T03:55:54;101039.84;;;8.31;74.66
3444;BME280;1736;52.068;6.968;2023-05-01T03:58:20;101043.56;;;8.28;74.68
3444;BME280;1736;52.068;6.968;2023-05-01T04:00:47;101031.69;;;8.21;75.15
3444;BME280;1736;52.068;6.968;2023-05-01T04:03:16;101036.31;;;8.18;76.37
3444;BME280;1736;52.068;6.968;2023-05-01T04:05:42;101038.31;;;8.14;77.05
3444;BME280;1736;52.068;6.968;2023-05-01T04:08:09;101036.09;;;8.08;78.04
3444;BME280;1736;52.068;6.968;2023-05-01T04:10:36;101030.16;;;8.05;78.68
3444;BME280;1736;52.068;6.968;2023-05-01T04:13:02;101020.63;;;8.02;78.61
3444;BME280;1736;52.068;6.968;2023-05-01T04:15:29;101027.59;;;8.03;78.90
3444;BME280;1736;52.068;6.968;2023-05-01T04:17:55;101022.22;;;8.05;79.29
3444;BME280;1736;52.068;6.968;2023-05-01T04:20:30;101018.94;;;8.01;79.55
3444;BME280;1736;52.068;6.968;2023-05-01T04:22:57;101021.59;;;8.01;79.22
3444;BME280;1736;52.068;6.968;2023-05-01T04:25:23;101018.09;;;8.01;78.91
3444;BME280;1736;52.068;6.968;2023-05-01T04:27:50;101018.75;;;8.04;78.88
3444;BME280;1736;52.068;6.968;2023-05-01T04:30:17;101021.16;;;8.07;79.81
3444;BME280;1736;52.068;6.968;2023-05-01T04:32:43;101021.16;;;8.07;79.51
3444;BME280;1736;52.068;6.968;2023-05-01T04:35:10;101018.97;;;8.14;79.80
3444;BME280;1736;52.068;6.968;2023-05-01T04:37:38;101011.97;;;8.13;80.06
3444;BME280;1736;52.068;6.968;2023-05-01T04:40:05;101016.00;;;8.18;80.18
3444;BME280;1736;52.068;6.968;2023-05-01T04:42:32;101023.81;;;8.20;79.87
3444;BME280;1736;52.068;6.968;2023-05-01T04:44:59;101029.97;;;8.20;79.90
3444;BME280;1736;52.068;6.968;2023-05-01T04:47:28;101023.09;;;8.18;80.46
3444;BME280;1736;52.068;6.968;2023-05-01T04:49:54;101018.38;;;8.23;80.83
3444;BME280;1736;52.068;6.968;2023-05-01T04:52:21;101025.56;;;8.33;81.45
3444;BME280;1736;52.068;6.968;2023-05-01T04:54:49;101024.19;;;8.40;81.08
3444;BME280;1736;52.068;6.968;2023-05-01T04:57:15;101017.75;;;8.44;81.25
3444;BME280;1736;52.068;6.968;2023-05-01T04:59:41;101021.00;;;8.48;81.36
3444;BME280;1736;52.068;6.968;2023-05-01T05:02:08;101017.41;;;8.49;81.22
3444;BME280;1736;52.068;6.968;2023-05-01T05:04:35;101012.97;;;8.49;81.28
3444;BME280;1736;52.068;6.968;2023-05-01T05:07:02;101014.66;;;8.50;80.76
3444;BME280;1736;52.068;6.968;2023-05-01T05:09:28;101012.75;;;8.52;80.63
3444;BME280;1736;52.068;6.968;2023-05-01T05:11:56;101022.38;;;8.53;80.87
3444;BME280;1736;52.068;6.968;2023-05-01T05:14:22;101020.47;;;8.55;80.57
3444;BME280;1736;52.068;6.968;2023-05-01T05:16:49;101020.78;;;8.63;80.27
3444;BME280;1736;52.068;6.968;2023-05-01T05:19:15;101023.00;;;8.69;79.76
3444;BME280;1736;52.068;6.968;2023-05-01T05:21:42;101025.09;;;8.77;79.76
3444;BME280;1736;52.068;6.968;2023-05-01T05:24:08;101021.38;;;8.79;78.94
3444;BME280;1736;52.068;6.968;2023-05-01T05:26:35;101014.25;;;8.92;79.08
3444;BME280;1736;52.068;6.968;2023-05-01T05:29:03;101020.59;;;9.02;78.94
3444;BME280;1736;52.068;6.968;2023-05-01T05:31:30;101014.22;;;9.17;77.93
3444;BME280;1736;52.068;6.968;2023-05-01T05:33:56;101021.88;;;9.33;77.77
3444;BME280;1736;52.068;6.968;2023-05-01T05:36:23;101023.78;;;9.54;77.37
3444;BME280;1736;52.068;6.968;2023-05-01T05:38:52;101024.09;;;9.73;75.01
3444;BME280;1736;52.068;6.968;2023-05-01T05:41:18;101020.84;;;10.04;73.96
3444;BME280;1736;52.068;6.968;2023-05-01T05:43:45;101018.72;;;10.20;71.51
3444;BME280;1736;52.068;6.968;2023-05-01T05:46:13;101019.63;;;10.54;69.10
3444;BME280;1736;52.068;6.968;2023-05-01T05:48:40;101028.69;;;10.85;67.39
3444;BME280;1736;52.068;6.968;2023-05-01T05:51:06;101027.19;;;11.14;66.69
3444;BME280;1736;52.068;6.968;2023-05-01T05:53:32;101018.94;;;11.28;65.01
3444;BME280;1736;52.068;6.968;2023-05-01T05:55:59;101016.22;;;11.50;63.28
3444;BME280;1736;52.068;6.968;2023-05-01T05:58:26;101022.97;;;11.54;62.28
3444;BME280;1736;52.068;6.968;2023-05-01T06:00:52;101022.69;;;11.68;61.79
3444;BME280;1736;52.068;6.968;2023-05-01T06:03:21;101011.56;;;11.74;62.01
3444;BME280;1736;52.068;6.968;2023-05-01T06:05:47;101013.25;;;11.75;61.61
3444;BME280;1736;52.068;6.968;2023-05-01T06:08:14;101017.44;;;11.88;61.70
3444;BME280;1736;52.068;6.968;2023-05-01T06:10:42;101023.28;;;12.03;61.52
3444;BME280;1736;52.068;6.968;2023-05-01T06:13:09;101017.66;;;12.06;60.67
3444;BME280;1736;52.068;6.968;2023-05-01T06:15:36;101016.94;;;12.24;60.02
3444;BME280;1736;52.068;6.968;2023-05-01T06:18:02;101010.47;;;12.38;59.56
3444;BME280;1736;52.068;6.968;2023-05-01T06:20:31;101015.50;;;12.61;60.74
3444;BME280;1736;52.068;6.968;2023-05-01T06:22:57;101016.59;;;12.59;59.95
3444;BME280;1736;52.068;6.968;2023-05-01T06:25:24;101007.13;;;12.75;59.24
3444;BME280;1736;52.068;6.968;2023-05-01T06:27:50;101007.47;;;12.91;58.79
3444;BME280;1736;52.068;6.968;2023-05-01T06:30:17;100998.38;;;12.94;59.59
3444;BME280;1736;52.068;6.968;2023-05-01T06:32:45;101007.22;;;12.64;60.72
3444;BME280;1736;52.068;6.968;2023-05-01T06:35:12;101006.97;;;12.67;60.65
3444;BME280;1736;52.068;6.968;2023-05-01T06:37:40;100997.34;;;12.76;61.05
3444;BME280;1736;52.068;6.968;2023-05-01T06:40:08;101010.78;;;12.74;61.77
3444;BME280;1736;52.068;6.968;2023-05-01T06:42:34;101000.63;;;12.59;62.00
3444;BME280;1736;52.068;6.968;2023-05-01T06:45:01;101004.88;;;12.71;62.14
3444;BME280;1736;52.068;6.968;2023-05-01T06:47:28;101004.19;;;12.69;62.21
3444;BME280;1736;52.068;6.968;2023-05-01T06:49:55;101007.94;;;12.66;62.24
3444;BME280;1736;52.068;6.968;2023-05-01T06:52:21;101009.13;;;12.73;62.17
3444;BME280;1736;52.068;6.968;2023-05-01T06:54:49;100997.91;;;12.79;62.06
3444;BME280;1736;52.068;6.968;2023-05-01T06:57:16;101003.97;;;12.91;62.29
3444;BME280;1736;52.068;6.968;2023-05-01T06:59:42;101000.00;;;13.06;62.25
3444;BME280;1736;52.068;6.968;2023-05-01T07:02:09;101005.72;;;13.01;61.80
3444;BME280;1736;52.068;6.968;2023-05-01T07:04:35;100999.91;;;12.96;61.55
3444;BME280;1736;52.068;6.968;2023-05-01T07:07:02;100997.50;;;12.84;61.28
3444;BME280;1736;52.068;6.968;2023-05-01T07:09:28;100998.63;;;13.21;60.77
3444;BME280;1736;52.068;6.968;2023-05-01T07:11:57;101000.84;;;13.16;61.16
3444;BME280;1736;52.068;6.968;2023-05-01T07:14:23;100994.00;;;13.23;60.79
3444;BME280;1736;52.068;6.968;2023-05-01T07:16:50;100994.28;;;13.39;61.17
3444;BME280;1736;52.068;6.968;2023-05-01T07:19:16;100995.84;;;13.51;60.78
3444;BME280;1736;52.068;6.968;2023-05-01T07:21:43;100996.00;;;13.59;61.16
3444;BME280;1736;52.068;6.968;2023-05-01T07:24:09;100993.75;;;13.73;60.26
3444;BME280;1736;52.068;6.968;2023-05-01T07:26:36;100983.94;;;13.55;60.23
3444;BME280;1736;52.068;6.968;2023-05-01T07:29:05;100990.53;;;13.60;60.90
3444;BME280;1736;52.068;6.968;2023-05-01T07:31:31;100984.63;;;13.66;60.44
3444;BME280;1736;52.068;6.968;2023-05-01T07:33:57;100983.94;;;13.74;61.18
3444;BME280;1736;52.068;6.968;2023-05-01T07:36:24;100989.69;;;13.88;60.71
3444;BME280;1736;52.068;6.968;2023-05-01T07:38:50;100989.94;;;14.04;60.64
3444;BME280;1736;52.068;6.968;2023-05-01T07:41:17;100986.00;;;13.99;60.13
3444;BME280;1736;52.068;6.968;2023-05-01T07:43:43;100990.47;;;14.36;60.57
3444;BME280;1736;52.068;6.968;2023-05-01T07:46:11;100992.00;;;14.39;59.41
3444;BME280;1736;52.068;6.968;2023-05-01T07:48:37;100994.59;;;14.58;59.11
3444;BME280;1736;52.068;6.968;2023-05-01T07:51:04;100991.38;;;14.91;58.85
3444;BME280;1736;52.068;6.968;2023-05-01T07:53:31;100993.53;;;15.05;57.93
3444;BME280;1736;52.068;6.968;2023-05-01T07:56:03;100992.19;;;15.18;58.09
3444;BME280;1736;52.068;6.968;2023-05-01T07:58:31;100993.28;;;15.25;57.63
3444;BME280;1736;52.068;6.968;2023-05-01T08:00:57;100987.97;;;15.43;57.07
3444;BME280;1736;52.068;6.968;2023-05-01T08:03:26;101007.16;;;15.39;57.10
3444;BME280;1736;52.068;6.968;2023-05-01T08:05:53;100993.09;;;15.37;57.37
3444;BME280;1736;52.068;6.968;2023-05-01T08:08:20;100989.59;;;15.36;57.53
3444;BME280;1736;52.068;6.968;2023-05-01T08:10:46;101000.19;;;15.63;56.79
3444;BME280;1736;52.068;6.968;2023-05-01T08:13:13;100989.56;;;15.54;56.93
3444;BME280;1736;52.068;6.968;2023-05-01T08:15:40;100992.81;;;15.75;56.61
3444;BME280;1736;52.068;6.968;2023-05-01T08:18:07;100986.59;;;15.92;56.33
3444;BME280;1736;52.068;6.968;2023-05-01T08:20:35;100983.19;;;16.07;55.67
3444;BME280;1736;52.068;6.968;2023-05-01T08:23:02;100979.41;;;16.18;55.57
3444;BME280;1736;52.068;6.968;2023-05-01T08:25:28;100976.03;;;16.33;54.72
3444;BME280;1736;52.068;6.968;2023-05-01T08:27:56;100974.97;;;16.26;55.70
3444;BME280;1736;52.068;6.968;2023-05-01T08:30:22;100972.00;;;16.37;55.88
3444;BME280;1736;52.068;6.968;2023-05-01T08:32:49;100970.25;;;16.46;55.62
3444;BME280;1736;52.068;6.968;2023-05-01T08:35:15;100974.09;;;16.43;55.86
3444;BME280;1736;52.068;6.968;2023-05-01T08:37:43;100979.59;;;16.42;55.08
3444;BME280;1736;52.068;6.968;2023-05-01T08:40:10;100972.91;;;16.20;55.68
3444;BME280;1736;52.068;6.968;2023-05-01T08:42:37;100977.66;;;16.26;56.43
3444;BME280;1736;52.068;6.968;2023-05-01T08:45:06;100987.09;;;16.38;55.90
3444;BME280;1736;52.068;6.968;2023-05-01T08:47:35;100980.63;;;16.41;54.96
3444;BME280;1736;52.068;6.968;2023-05-01T08:50:03;100987.84;;;16.48;55.02
3444;BME280;1736;52.068;6.968;2023-05-01T08:52:30;100980.22;;;16.61;54.82
3444;BME280;1736;52.068;6.968;2023-05-01T08:54:59;100978.16;;;16.81;54.47
3444;BME280;1736;52.068;6.968;2023-05-01T08:57:26;100981.09;;;16.70;54.49
3444;BME280;1736;52.068;6.968;2023-05-01T09:00:02;100969.09;;;16.82;53.65
3444;BME280;1736;52.068;6.968;2023-05-01T09:02:30;100972.00;;;16.96;53.13
3444;BME280;1736;52.068;6.968;2023-05-01T09:05:00;100971.34;;;16.94;52.73
3444;BME280;1736;52.068;6.968;2023-05-01T09:07:28;100972.91;;;17.13;52.54
3444;BME280;1736;52.068;6.968;2023-05-01T09:09:55;100963.44;;;16.85;54.67
3444;BME280;1736;52.068;6.968;2023-05-01T09:12:24;100970.63;;;16.84;52.11
3444;BME280;1736;52.068;6.968;2023-05-01T09:14:53;100967.44;;;16.81;52.83
3444;BME280;1736;52.068;6.968;2023-05-01T09:17:21;100967.16;;;17.00;52.49
3444;BME280;1736;52.068;6.968;2023-05-01T09:19:48;100957.66;;;17.21;51.42
3444;BME280;1736;52.068;6.968;2023-05-01T09:22:17;100965.22;;;17.18;52.52
3444;BME280;1736;52.068;6.968;2023-05-01T09:24:44;100967.78;;;17.35;53.38
3444;BME280;1736;52.068;6.968;2023-05-01T09:27:11;100970.50;;;17.43;52.54
3444;BME280;1736;52.068;6.968;2023-05-01T09:29:41;100957.59;;;17.55;52.49
3444;BME280;1736;52.068;6.968;2023-05-01T09:32:15;100960.13;;;17.56;51.57
3444;BME280;1736;52.068;6.968;2023-05-01T09:34:43;100967.16;;;17.65;51.65
3444;BME280;1736;52.068;6.968;2023-05-01T09:37:11;100959.59;;;17.53;50.62
3444;BME280;1736;52.068;6.968;2023-05-01T09:39:39;100957.28;;;17.58;50.46
3444;BME280;1736;52.068;6.968;2023-05-01T09:42:06;100953.56;;;17.59;51.08
3444;BME280;1736;52.068;6.968;2023-05-01T09:44:40;100945.69;;;17.65;49.88
3444;BME280;1736;52.068;6.968;2023-05-01T09:47:09;100947.34;;;17.74;50.46
3444;BME280;1736;52.068;6.968;2023-05-01T09:49:44;100946.19;;;17.61;50.63
3444;BME280;1736;52.068;6.968;2023-05-01T09:52:12;100938.97;;;17.69;52.00
3444;BME280;1736;52.068;6.968;2023-05-01T09:54:39;100940.81;;;17.77;51.85
3444;BME280;1736;52.068;6.968;2023-05-01T09:57:06;100941.13;;;18.06;52.17
3444;BME280;1736;52.068;6.968;2023-05-01T09:59:33;100949.00;;;18.07;50.50
3444;BME280;1736;52.068;6.968;2023-05-01T10:02:01;100942.66;;;18.16;49.74
3444;BME280;1736;52.068;6.968;2023-05-01T10:04:31;100930.22;;;18.07;50.24
3444;BME280;1736;52.068;6.968;2023-05-01T10:07:03;100935.44;;;17.77;49.60
3444;BME280;1736;52.068;6.968;2023-05-01T10:09:36;100930.25;;;17.83;50.14
3444;BME280;1736;52.068;6.968;2023-05-01T10:12:03;100934.41;;;18.02;51.02
3444;BME280;1736;52.068;6.968;2023-05-01T10:14:30;100930.91;;;17.93;49.95
3444;BME280;1736;52.068;6.968;2023-05-01T10:17:16;100933.78;;;17.84;50.04
3444;BME280;1736;52.068;6.968;2023-05-01T10:19:43;100932.75;;;18.01;50.29
3444;BME280;1736;52.068;6.968;2023-05-01T10:22:10;100931.72;;;18.10;50.67
3444;BME280;1736;52.068;6.968;2023-05-01T10:24:37;100934.06;;;18.37;51.11
3444;BME280;1736;52.068;6.968;2023-05-01T10:27:05;100928.44;;;18.62;48.98
3444;BME280;1736;52.068;6.968;2023-05-01T10:29:33;100931.91;;;18.71;48.01
3444;BME280;1736;52.068;6.968;2023-05-01T10:32:01;100930.16;;;18.86;48.79
3444;BME280;1736;52.068;6.968;2023-05-01T10:34:30;100929.28;;;18.93;46.49
3444;BME280;1736;52.068;6.968;2023-05-01T10:37:01;100927.91;;;18.97;46.68
3444;BME280;1736;52.068;6.968;2023-05-01T10:39:29;100931.13;;;19.31;46.32
3444;BME280;1736;52.068;6.968;2023-05-01T10:42:01;100936.56;;;19.46;44.25
3444;BME280;1736;52.068;6.968;2023-05-01T10:44:29;100921.19;;;19.77;43.07
3444;BME280;1736;52.068;6.968;2023-05-01T10:46:56;100921.44;;;19.67;43.92
3444;BME280;1736;52.068;6.968;2023-05-01T10:49:22;100925.56;;;19.55;43.69
3444;BME280;1736;52.068;6.968;2023-05-01T10:52:00;100923.25;;;19.89;43.79
3444;BME280;1736;52.068;6.968;2023-05-01T10:54:28;100926.72;;;19.98;43.65
3444;BME280;1736;52.068;6.968;2023-05-01T10:56:57;100918.59;;;19.83;43.02
3444;BME280;1736;52.068;6.968;2023-05-01T10:59:25;100917.44;;;20.01;43.27
3444;BME280;1736;52.068;6.968;2023-05-01T11:01:52;100915.44;;;20.32;43.14
3444;BME280;1736;52.068;6.968;2023-05-01T11:04:44;100915.44;;;20.32;43.14
3444;BME280;1736;52.068;6.968;2023-05-01T11:07:15;100910.63;;;20.42;43.33
3444;BME280;1736;52.068;6.968;2023-05-01T11:09:44;100913.84;;;20.23;41.49
3444;BME280;1736;52.068;6.968;2023-05-01T11:12:12;100909.31;;;20.38;42.04
3444;BME280;1736;52.068;6.968;2023-05-01T11:15:01;100898.75;;;20.86;40.66
3444;BME280;1736;52.068;6.968;2023-05-01T11:17:55;100901.31;;;20.59;41.27
3444;BME280;1736;52.068;6.968;2023-05-01T11:20:45;100896.25;;;20.85;41.88
3444;BME280;1736;52.068;6.968;2023-05-01T11:23:18;100896.81;;;20.95;41.89
3444;BME280;1736;52.068;6.968;2023-05-01T11:25:46;100894.09;;;21.09;41.24
3444;BME280;1736;52.068;6.968;2023-05-01T11:28:18;100897.66;;;20.66;41.74
3444;BME280;1736;52.068;6.968;2023-05-01T11:30:45;100889.41;;;20.68;42.52
3444;BME280;1736;52.068;6.968;2023-05-01T11:33:12;100894.25;;;20.58;44.39
3444;BME280;1736;52.068;6.968;2023-05-01T11:35:41;100895.19;;;20.65;42.65
3444;BME280;1736;52.068;6.968;2023-05-01T11:38:15;100886.63;;;20.61;42.44
3444;BME280;1736;52.068;6.968;2023-05-01T11:40:44;100886.91;;;20.52;43.91
3444;BME280;1736;52.068;6.968;2023-05-01T11:43:10;100885.97;;;20.59;43.75
3444;BME280;1736;52.068;6.968;2023-05-01T11:45:37;100881.97;;;20.70;44.33
3444;BME280;1736;52.068;6.968;2023-05-01T11:48:13;100880.94;;;20.71;43.35
3444;BME280;1736;52.068;6.968;2023-05-01T11:50:40;100881.38;;;20.74;43.33
3444;BME280;1736;52.068;6.968;2023-05-01T11:53:10;100887.66;;;20.46;44.21
3444;BME280;1736;52.068;6.968;2023-05-01T11:55:37;100875.75;;;20.26;44.84
3444;BME280;1736;52.068;6.968;2023-05-01T11:58:05;100879.41;;;20.33;45.50
3444;BME280;1736;52.068;6.968;2023-05-01T12:00:33;100880.69;;;20.37;45.64
3444;BME280;1736;52.068;6.968;2023-05-01T12:03:03;100878.63;;;20.10;44.88
3444;BME280;1736;52.068;6.968;2023-05-01T12:05:31;100880.78;;;20.29;45.65
3444;BME280;1736;52.068;6.968;2023-05-01T12:08:08;100882.38;;;20.23;44.66
3444;BME280;1736;52.068;6.968;2023-05-01T12:10:36;100870.09;;;20.21;45.32
3444;BME280;1736;52.068;6.968;2023-05-01T12:13:04;100886.81;;;20.16;45.04
3444;BME280;1736;52.068;6.968;2023-05-01T12:15:34;100868.13;;;20.15;44.33
3444;BME280;1736;52.068;6.968;2023-05-01T12:18:01;100866.75;;;20.19;45.20
3444;BME280;1736;52.068;6.968;2023-05-01T12:20:35;100868.53;;;20.26;44.12
3444;BME280;1736;52.068;6.968;2023-05-01T12:23:02;100868.13;;;20.29;43.89
3444;BME280;1736;52.068;6.968;2023-05-01T12:25:31;100864.88;;;20.48;43.93
3444;BME280;1736;52.068;6.968;2023-05-01T12:27:59;100865.00;;;20.76;45.27
3444;BME280;1736;52.068;6.968;2023-05-01T12:30:26;100870.13;;;20.85;45.12
3444;BME280;1736;52.068;6.968;2023-05-01T12:32:55;100869.88;;;20.66;41.17
3444;BME280;1736;52.068;6.968;2023-05-01T12:35:27;100866.94;;;20.32;42.37
3444;BME280;1736;52.068;6.968;2023-05-01T12:37:54;100869.72;;;20.53;41.91
3444;BME280;1736;52.068;6.968;2023-05-01T12:40:21;100864.50;;;20.51;42.63
3444;BME280;1736;52.068;6.968;2023-05-01T12:42:53;100860.72;;;20.81;41.08
3444;BME280;1736;52.068;6.968;2023-05-01T12:45:20;100858.22;;;20.94;40.59
3444;BME280;1736;52.068;6.968;2023-05-01T12:47:47;100866.38;;;21.01;41.13
3444;BME280;1736;52.068;6.968;2023-05-01T12:50:15;100860.84;;;21.09;41.93
3444;BME280;1736;52.068;6.968;2023-05-01T12:52:42;100862.69;;;21.23;40.05
3444;BME280;1736;52.068;6.968;2023-05-01T12:55:10;100852.00;;;20.94;40.86
3444;BME280;1736;52.068;6.968;2023-05-01T12:57:50;100848.03;;;21.11;40.83
3444;BME280;1736;52.068;6.968;2023-05-01T13:00:17;100852.38;;;21.33;39.10
3444;BME280;1736;52.068;6.968;2023-05-01T13:02:44;100854.97;;;21.20;39.63
3444;BME280;1736;52.068;6.968;2023-05-01T13:05:11;100851.09;;;21.29;39.68
3444;BME280;1736;52.068;6.968;2023-05-01T13:07:46;100850.06;;;21.09;36.80
3444;BME280;1736;52.068;6.968;2023-05-01T13:10:13;100845.88;;;21.06;37.98
3444;BME280;1736;52.068;6.968;2023-05-01T13:12:43;100844.91;;;20.93;37.60
3444;BME280;1736;52.068;6.968;2023-05-01T13:15:18;100834.28;;;21.06;38.88
3444;BME280;1736;52.068;6.968;2023-05-01T13:17:46;100833.00;;;21.23;39.51
3444;BME280;1736;52.068;6.968;2023-05-01T13:20:13;100835.69;;;21.23;39.96
3444;BME280;1736;52.068;6.968;2023-05-01T13:22:41;100826.69;;;20.95;39.24